createdAt,value
2022-12-27T00:01:35.459Z,1.00
2022-12-27T00:03:39.486Z,1.00
2022-12-27T00:05:43.846Z,0.80
2022-12-27T00:07:46.591Z,0.90
2022-12-27T00:09:49.333Z,0.90
2022-12-27T00:11:58.017Z,1.10
2022-12-27T00:14:03.163Z,0.83
2022-12-27T00:16:06.540Z,1.00
2022-12-27T00:18:09.252Z,0.93
2022-12-27T00:20:13.967Z,0.90
2022-12-27T00:22:16.676Z,0.87
2022-12-27T00:24:19.404Z,0.60
2022-12-27T00:26:23.292Z,1.10
2022-12-27T00:28:26.341Z,0.87
2022-12-27T00:30:29.040Z,0.93
2022-12-27T00:32:31.729Z,0.97
2022-12-27T00:34:34.445Z,0.93
2022-12-27T00:36:38.743Z,1.00
2022-12-27T00:38:41.480Z,1.00
2022-12-27T00:40:44.210Z,1.03
2022-12-27T00:42:46.900Z,0.70
2022-12-27T00:44:49.597Z,0.90
2022-12-27T00:46:52.305Z,0.90
2022-12-27T00:48:55.393Z,0.97
2022-12-27T00:50:59.731Z,0.70
2022-12-27T00:53:03.774Z,0.90
2022-12-27T00:55:06.926Z,0.93
2022-12-27T00:57:09.717Z,1.40
2022-12-27T00:59:12.927Z,0.80
2022-12-27T01:01:17.342Z,0.90
2022-12-27T01:03:20.503Z,1.00
2022-12-27T01:05:23.402Z,0.90
2022-12-27T01:07:26.432Z,1.07
2022-12-27T01:09:30.479Z,0.80
2022-12-27T01:11:33.265Z,0.80
2022-12-27T01:13:36.055Z,0.90
2022-12-27T01:15:42.530Z,0.90
2022-12-27T01:17:45.212Z,0.80
2022-12-27T01:19:47.900Z,0.70
2022-12-27T01:21:50.647Z,1.07
2022-12-27T01:23:53.834Z,0.90
2022-12-27T01:26:01.860Z,0.87
2022-12-27T01:28:04.579Z,0.80
2022-12-27T01:30:08.181Z,1.10
2022-12-27T01:32:11.275Z,0.90
2022-12-27T01:34:13.969Z,0.87
2022-12-27T01:36:19.310Z,0.87
2022-12-27T01:38:22.002Z,0.93
2022-12-27T01:40:26.154Z,1.13
2022-12-27T01:42:41.130Z,0.80
2022-12-27T01:44:52.249Z,0.70
2022-12-27T01:46:54.973Z,0.80
2022-12-27T01:48:58.133Z,0.90
2022-12-27T01:51:03.309Z,0.90
2022-12-27T01:53:09.693Z,0.80
2022-12-27T01:55:19.190Z,0.70
2022-12-27T01:57:22.067Z,1.03
2022-12-27T01:59:26.015Z,0.80
2022-12-27T02:01:31.564Z,0.70
2022-12-27T02:03:36.501Z,1.10
2022-12-27T02:05:41.773Z,0.60
2022-12-27T02:07:50.139Z,1.00
2022-12-27T02:09:56.020Z,0.60
2022-12-27T02:12:01.771Z,0.90
2022-12-27T02:14:04.463Z,0.70
2022-12-27T02:16:13.525Z,0.80
2022-12-27T02:18:16.416Z,0.70
2022-12-27T02:20:21.503Z,0.73
2022-12-27T02:22:59.242Z,0.97
2022-12-27T02:25:11.950Z,0.70
2022-12-27T02:27:19.266Z,0.90
2022-12-27T02:29:30.790Z,0.70
2022-12-27T02:31:40.464Z,0.80
2022-12-27T02:33:44.743Z,0.63
2022-12-27T02:35:51.720Z,0.73
2022-12-27T02:37:56.677Z,0.90
2022-12-27T02:40:20.814Z,0.67
2022-12-27T02:42:34.474Z,0.80
2022-12-27T02:44:50.054Z,0.60
2022-12-27T02:47:03.714Z,0.80
2022-12-27T02:49:35.473Z,0.90
2022-12-27T02:51:53.857Z,0.60
2022-12-27T02:54:01.685Z,1.00
2022-12-27T02:56:23.115Z,0.77
2022-12-27T02:58:29.185Z,0.87
2022-12-27T03:00:46.389Z,0.80
2022-12-27T03:03:09.670Z,0.70
2022-12-27T03:05:16.490Z,0.87
2022-12-27T03:07:26.361Z,0.70
2022-12-27T03:09:45.527Z,1.00
2022-12-27T03:12:00.402Z,0.93
2022-12-27T03:14:20.267Z,0.50
2022-12-27T03:16:27.601Z,0.60
2022-12-27T03:18:36.617Z,0.80
2022-12-27T03:20:50.623Z,1.03
2022-12-27T03:23:04.343Z,0.70
2022-12-27T03:25:18.341Z,0.77
2022-12-27T03:27:22.409Z,0.90
2022-12-27T03:29:36.491Z,0.77
2022-12-27T03:31:52.689Z,0.80
2022-12-27T03:34:04.602Z,0.70
2022-12-27T03:36:24.881Z,0.80
2022-12-27T03:38:34.311Z,0.70
2022-12-27T03:41:02.612Z,0.80
2022-12-27T03:43:12.272Z,0.70
2022-12-27T03:45:15.265Z,0.60
2022-12-27T03:47:21.910Z,0.60
2022-12-27T03:49:26.424Z,0.73
2022-12-27T03:51:31.327Z,0.80
2022-12-27T03:53:35.662Z,0.60
2022-12-27T03:55:38.396Z,0.60
2022-12-27T03:57:41.718Z,0.80
2022-12-27T03:59:44.919Z,0.90
2022-12-27T04:01:47.649Z,0.80
2022-12-27T04:03:51.738Z,0.67
2022-12-27T04:05:54.463Z,0.80
2022-12-27T04:08:08.622Z,0.63
2022-12-27T04:10:24.487Z,1.00
2022-12-27T04:12:38.169Z,0.83
2022-12-27T04:14:52.233Z,0.70
2022-12-27T04:17:05.878Z,0.87
2022-12-27T04:19:20.859Z,0.77
2022-12-27T04:21:35.318Z,0.80
2022-12-27T04:23:49.050Z,0.60
2022-12-27T04:26:02.692Z,0.50
2022-12-27T04:28:16.883Z,0.80
2022-12-27T04:30:30.577Z,0.60
2022-12-27T04:32:44.212Z,0.70
2022-12-27T04:34:48.285Z,0.60
2022-12-27T04:36:51.368Z,0.70
2022-12-27T04:38:54.047Z,0.60
2022-12-27T04:41:07.721Z,0.60
2022-12-27T04:43:21.772Z,0.70
2022-12-27T04:45:38.472Z,0.50
2022-12-27T04:47:52.151Z,0.50
2022-12-27T04:50:07.612Z,0.90
2022-12-27T04:52:24.441Z,0.80
2022-12-27T04:54:38.161Z,0.70
2022-12-27T04:56:40.916Z,0.70
2022-12-27T04:59:04.045Z,0.77
2022-12-27T05:01:17.829Z,0.90
2022-12-27T05:03:22.428Z,0.70
2022-12-27T05:05:26.500Z,0.70
2022-12-27T05:07:40.660Z,0.70
2022-12-27T05:09:54.375Z,0.77
2022-12-27T05:12:11.041Z,0.90
2022-12-27T05:14:15.367Z,0.70
2022-12-27T05:16:17.294Z,0.90
2022-12-27T05:18:20.027Z,0.70
2022-12-27T05:20:22.783Z,0.70
2022-12-27T05:22:38.176Z,0.57
2022-12-27T05:24:51.872Z,0.60
2022-12-27T05:26:56.809Z,0.97
2022-12-27T05:29:00.368Z,0.80
2022-12-27T05:31:03.680Z,0.70
2022-12-27T05:33:06.522Z,0.63
2022-12-27T05:35:09.596Z,0.90
2022-12-27T05:37:12.276Z,0.73
2022-12-27T05:39:16.696Z,0.60
2022-12-27T05:41:19.395Z,0.70
2022-12-27T05:43:22.179Z,0.60
2022-12-27T05:45:24.944Z,0.80
2022-12-27T05:47:28.142Z,0.80
2022-12-27T05:49:30.869Z,0.80
2022-12-27T05:51:33.597Z,0.77
2022-12-27T05:53:36.356Z,0.60
2022-12-27T05:55:41.018Z,0.80
2022-12-27T05:57:43.776Z,0.80
2022-12-27T05:59:46.505Z,0.90
2022-12-27T06:01:49.370Z,0.70
2022-12-27T06:03:52.661Z,0.80
2022-12-27T06:06:00.888Z,0.90
2022-12-27T06:08:03.617Z,0.70
2022-12-27T06:10:07.373Z,0.70
2022-12-27T06:12:11.842Z,0.63
2022-12-27T06:14:14.910Z,0.60
2022-12-27T06:16:17.693Z,0.73
2022-12-27T06:18:20.447Z,0.60
2022-12-27T06:20:23.507Z,0.73
2022-12-27T06:22:26.210Z,0.70
2022-12-27T06:24:28.919Z,0.70
2022-12-27T06:26:31.712Z,0.67
2022-12-27T06:28:36.270Z,0.63
2022-12-27T06:30:39.147Z,0.60
2022-12-27T06:32:41.920Z,0.77
2022-12-27T06:34:45.396Z,0.80
2022-12-27T06:36:50.969Z,0.80
2022-12-27T06:38:53.752Z,0.70
2022-12-27T06:41:01.935Z,0.80
2022-12-27T06:43:04.701Z,0.80
2022-12-27T06:45:10.603Z,0.73
2022-12-27T06:47:13.326Z,0.50
2022-12-27T06:49:16.382Z,0.53
2022-12-27T06:51:20.538Z,0.60
2022-12-27T06:53:23.410Z,0.60
2022-12-27T06:55:26.199Z,0.90
2022-12-27T06:57:28.968Z,0.87
2022-12-27T06:59:32.177Z,0.63
2022-12-27T07:01:36.346Z,0.70
2022-12-27T07:03:39.223Z,0.70
2022-12-27T07:05:41.970Z,0.80
2022-12-27T07:07:45.099Z,0.90
2022-12-27T07:09:47.840Z,0.83
2022-12-27T07:11:50.579Z,0.90
2022-12-27T07:13:54.496Z,0.87
2022-12-27T07:15:57.677Z,0.80
2022-12-27T07:18:02.049Z,1.00
2022-12-27T07:20:04.856Z,0.90
2022-12-27T07:22:07.650Z,0.73
2022-12-27T07:24:10.905Z,0.70
2022-12-27T07:26:15.060Z,0.80
2022-12-27T07:28:17.924Z,0.60
2022-12-27T07:30:20.799Z,0.80
2022-12-27T07:32:23.989Z,0.70
2022-12-27T07:34:28.055Z,0.80
2022-12-27T07:36:32.505Z,0.80
2022-12-27T07:38:35.257Z,0.70
2022-12-27T07:40:38.591Z,0.70
2022-12-27T07:42:41.903Z,0.70
2022-12-27T07:44:44.712Z,0.70
2022-12-27T07:46:47.715Z,0.60
2022-12-27T07:48:50.930Z,0.70
2022-12-27T07:50:56.721Z,0.60
2022-12-27T07:52:59.465Z,0.77
2022-12-27T07:55:02.285Z,0.50
2022-12-27T07:57:06.488Z,0.60
2022-12-27T07:59:12.514Z,0.80
2022-12-27T08:01:16.114Z,0.70
2022-12-27T08:03:19.017Z,0.63
2022-12-27T08:05:27.449Z,0.80
2022-12-27T08:07:32.974Z,0.80
2022-12-27T08:09:37.877Z,0.90
2022-12-27T08:11:40.622Z,0.50
2022-12-27T08:13:43.767Z,0.70
2022-12-27T08:15:46.649Z,0.87
2022-12-27T08:17:49.387Z,0.60
2022-12-27T08:19:52.204Z,0.90
2022-12-27T08:21:55.427Z,0.80
2022-12-27T08:23:59.623Z,0.60
2022-12-27T08:26:02.418Z,0.80
2022-12-27T08:28:05.289Z,0.63
2022-12-27T08:30:09.500Z,0.70
2022-12-27T08:32:12.253Z,0.70
2022-12-27T08:34:17.801Z,0.70
2022-12-27T08:38:47.388Z,0.53
2022-12-27T08:40:51.632Z,0.60
2022-12-27T08:42:54.334Z,0.67
2022-12-27T08:44:57.255Z,0.70
2022-12-27T08:47:00.485Z,0.67
2022-12-27T08:49:03.244Z,0.50
2022-12-27T08:51:12.123Z,0.70
2022-12-27T08:53:16.499Z,0.90
2022-12-27T08:55:19.317Z,0.77
2022-12-27T08:57:23.336Z,0.77
2022-12-27T08:59:26.707Z,0.70
2022-12-27T09:01:29.950Z,0.73
2022-12-27T09:03:32.883Z,0.60
2022-12-27T09:05:41.354Z,0.63
2022-12-27T09:07:45.059Z,0.80
2022-12-27T09:09:47.819Z,0.60
2022-12-27T09:11:50.587Z,0.80
2022-12-27T09:13:55.039Z,0.60
2022-12-27T09:15:57.809Z,0.70
2022-12-27T09:18:01.469Z,0.63
2022-12-27T09:20:04.525Z,0.73
2022-12-27T09:22:07.708Z,0.60
2022-12-27T09:24:11.399Z,0.60
2022-12-27T09:26:15.105Z,0.80
2022-12-27T09:28:18.201Z,0.80
2022-12-27T09:30:22.619Z,0.90
2022-12-27T09:32:28.030Z,0.80
2022-12-27T09:34:30.827Z,0.67
2022-12-27T09:36:33.552Z,0.73
2022-12-27T09:38:36.884Z,0.77
2022-12-27T09:40:39.642Z,0.60
2022-12-27T09:43:02.923Z,0.77
2022-12-27T09:45:09.977Z,0.90
2022-12-27T09:47:15.896Z,0.90
2022-12-27T09:49:23.268Z,0.60
2022-12-27T09:51:28.058Z,0.60
2022-12-27T09:53:35.439Z,0.80
2022-12-27T09:55:41.332Z,0.80
2022-12-27T09:57:44.964Z,0.57
2022-12-27T09:59:48.945Z,0.80
2022-12-27T10:01:52.199Z,0.70
2022-12-27T10:03:56.356Z,0.87
2022-12-27T10:06:04.328Z,0.70
2022-12-27T10:08:18.647Z,0.60
2022-12-27T10:10:24.528Z,0.70
2022-12-27T10:12:36.325Z,0.90
2022-12-27T10:14:49.932Z,0.80
2022-12-27T10:16:55.645Z,0.60
2022-12-27T10:19:09.639Z,0.70
2022-12-27T10:21:16.378Z,1.03
2022-12-27T10:23:21.360Z,0.73
2022-12-27T10:25:24.453Z,0.80
2022-12-27T10:27:28.076Z,1.27
2022-12-27T10:29:30.884Z,0.90
2022-12-27T10:31:34.094Z,0.70
2022-12-27T10:33:36.829Z,1.00
2022-12-27T10:35:40.818Z,0.80
2022-12-27T10:37:43.582Z,0.90
2022-12-27T10:39:46.601Z,1.00
2022-12-27T10:41:55.060Z,1.10
2022-12-27T10:43:57.838Z,0.77
2022-12-27T10:46:12.201Z,0.90
2022-12-27T10:48:17.589Z,1.00
2022-12-27T10:50:20.368Z,1.20
2022-12-27T10:52:24.359Z,0.80
2022-12-27T10:54:28.493Z,1.03
2022-12-27T10:56:31.799Z,0.80
2022-12-27T10:58:39.034Z,1.13
2022-12-27T11:00:41.922Z,1.10
2022-12-27T11:02:51.776Z,0.90
2022-12-27T11:04:59.237Z,1.30
2022-12-27T11:07:12.837Z,0.83
2022-12-27T11:09:26.813Z,1.00
2022-12-27T11:11:29.528Z,1.00
2022-12-27T11:13:32.605Z,1.00
2022-12-27T11:15:35.581Z,0.90
2022-12-27T11:17:39.470Z,0.97
2022-12-27T11:19:45.986Z,1.10
2022-12-27T11:21:48.716Z,1.27
2022-12-27T11:23:52.739Z,1.53
2022-12-27T11:25:57.980Z,1.20
2022-12-27T11:28:01.740Z,1.50
2022-12-27T11:30:04.749Z,1.30
2022-12-27T11:32:08.196Z,1.23
2022-12-27T11:34:16.326Z,1.47
2022-12-27T11:36:24.820Z,1.40
2022-12-27T11:38:29.176Z,1.80
2022-12-27T11:40:34.719Z,1.00
2022-12-27T11:42:41.787Z,1.13
2022-12-27T11:44:46.457Z,1.30
2022-12-27T11:46:58.614Z,1.20
2022-12-27T11:49:01.915Z,1.40
2022-12-27T11:51:24.654Z,1.10
2022-12-27T11:53:42.965Z,1.20
2022-12-27T11:56:04.480Z,1.17
2022-12-27T11:58:32.649Z,1.57
2022-12-27T12:00:38.818Z,1.40
2022-12-27T12:03:00.688Z,1.37
2022-12-27T12:05:16.867Z,1.27
2022-12-27T12:07:25.255Z,1.07
2022-12-27T12:09:36.304Z,1.20
2022-12-27T12:11:53.051Z,1.23
2022-12-27T12:14:07.515Z,1.00
2022-12-27T12:16:19.838Z,1.30
2022-12-27T12:18:29.877Z,0.97
2022-12-27T12:20:45.722Z,1.20
2022-12-27T12:23:03.527Z,1.03
2022-12-27T12:25:32.559Z,1.00
2022-12-27T12:27:42.691Z,1.40
2022-12-27T12:29:57.391Z,1.50
2022-12-27T12:32:09.894Z,2.03
2022-12-27T12:34:22.415Z,1.50
2022-12-27T12:36:34.177Z,1.50
2022-12-27T12:38:38.635Z,1.70
2022-12-27T12:40:55.874Z,1.77
2022-12-27T12:43:02.941Z,1.40
2022-12-27T12:45:21.092Z,1.33
2022-12-27T12:47:33.153Z,1.20
2022-12-27T12:49:42.353Z,1.40
2022-12-27T12:51:53.010Z,1.43
2022-12-27T12:54:04.181Z,1.40
2022-12-27T12:56:15.245Z,1.60
2022-12-27T12:58:25.492Z,1.30
2022-12-27T13:00:38.167Z,1.40
2022-12-27T13:02:59.927Z,1.60
2022-12-27T13:05:09.126Z,1.30
2022-12-27T13:07:24.606Z,1.50
2022-12-27T13:09:35.033Z,1.70
2022-12-27T13:11:43.163Z,1.57
2022-12-27T13:13:57.378Z,1.20
2022-12-27T13:16:09.014Z,1.60
2022-12-27T13:18:21.791Z,1.50
2022-12-27T13:20:44.100Z,1.40
2022-12-27T13:22:51.912Z,1.50
2022-12-27T13:25:04.613Z,1.50
2022-12-27T13:27:10.626Z,1.63
2022-12-27T13:29:27.804Z,1.60
2022-12-27T13:31:36.723Z,1.60
2022-12-27T13:33:44.704Z,1.40
2022-12-27T13:36:00.763Z,1.33
2022-12-27T13:38:11.493Z,1.30
2022-12-27T13:40:23.177Z,1.53
2022-12-27T13:42:40.435Z,1.53
2022-12-27T13:44:47.605Z,1.43
2022-12-27T13:47:03.205Z,1.30
2022-12-27T13:49:13.582Z,1.90
2022-12-27T13:51:26.049Z,1.60
2022-12-27T13:53:40.067Z,1.37
2022-12-27T13:55:48.224Z,1.50
2022-12-27T13:58:04.079Z,1.30
2022-12-27T14:00:12.891Z,1.20
2022-12-27T14:02:30.744Z,1.40
2022-12-27T14:04:43.061Z,1.30
2022-12-27T14:06:54.529Z,1.43
2022-12-27T14:09:11.235Z,1.17
2022-12-27T14:11:18.392Z,1.03
2022-12-27T14:13:23.825Z,1.20
2022-12-27T14:15:34.021Z,1.33
2022-12-27T14:17:40.281Z,1.17
2022-12-27T14:19:51.204Z,1.20
2022-12-27T14:22:00.752Z,1.03
2022-12-27T14:24:11.396Z,1.20
2022-12-27T14:26:35.856Z,1.40
2022-12-27T14:29:01.177Z,1.20
2022-12-27T14:31:25.209Z,1.07
2022-12-27T14:33:40.926Z,1.20
2022-12-27T14:35:58.541Z,1.20
2022-12-27T14:38:14.144Z,0.90
2022-12-27T14:40:34.441Z,1.23
2022-12-27T14:42:56.207Z,1.17
2022-12-27T14:45:18.067Z,1.10
2022-12-27T14:47:38.853Z,1.27
2022-12-27T14:50:00.950Z,1.27
2022-12-27T14:52:26.666Z,1.20
2022-12-27T14:54:54.298Z,1.00
2022-12-27T14:57:01.606Z,1.13
2022-12-27T14:59:11.639Z,1.20
2022-12-27T15:01:22.575Z,1.47
2022-12-27T15:03:38.092Z,1.10
2022-12-27T15:05:52.500Z,1.07
2022-12-27T15:08:07.522Z,0.90
2022-12-27T15:10:17.073Z,1.30
2022-12-27T15:12:24.917Z,1.20
2022-12-27T15:14:41.701Z,0.93
2022-12-27T15:16:49.366Z,1.47
2022-12-27T15:19:01.909Z,1.20
2022-12-27T15:21:18.607Z,1.07
2022-12-27T15:23:25.980Z,1.20
2022-12-27T15:25:32.205Z,0.90
2022-12-27T15:27:38.795Z,1.03
2022-12-27T15:29:49.075Z,1.23
2022-12-27T15:31:57.834Z,1.03
2022-12-27T15:34:11.939Z,1.20
2022-12-27T15:36:17.108Z,1.10
2022-12-27T15:38:20.935Z,1.17
2022-12-27T15:40:25.643Z,1.20
2022-12-27T15:42:39.691Z,1.10
2022-12-27T15:44:50.799Z,0.80
2022-12-27T15:47:09.963Z,1.00
2022-12-27T15:49:21.498Z,0.90
2022-12-27T15:51:30.320Z,1.20
2022-12-27T15:53:42.217Z,1.10
2022-12-27T15:56:02.810Z,1.10
2022-12-27T15:58:15.399Z,1.20
2022-12-27T16:00:19.217Z,1.30
2022-12-27T16:02:34.741Z,1.03
2022-12-27T16:04:49.695Z,1.10
2022-12-27T16:07:02.218Z,1.27
2022-12-27T16:09:20.123Z,0.90
2022-12-27T16:11:57.455Z,1.13
2022-12-27T16:14:24.974Z,1.00
2022-12-27T16:16:47.384Z,1.20
2022-12-27T16:18:57.090Z,1.20
2022-12-27T16:21:00.338Z,1.10
2022-12-27T16:23:05.123Z,1.17
2022-12-27T16:25:25.467Z,1.23
2022-12-27T16:27:33.136Z,1.30
2022-12-27T16:29:36.320Z,1.10
2022-12-27T16:31:45.542Z,1.00
2022-12-27T16:33:49.204Z,1.07
2022-12-27T16:36:13.066Z,1.17
2022-12-27T16:38:22.219Z,0.90
2022-12-27T16:40:37.152Z,1.10
2022-12-27T16:43:09.865Z,1.03
2022-12-27T16:45:29.231Z,1.23
2022-12-27T16:47:39.273Z,1.00
2022-12-27T16:49:56.150Z,1.17
2022-12-27T16:52:06.079Z,0.93
2022-12-27T16:54:18.215Z,0.93
2022-12-27T16:56:22.535Z,1.20
2022-12-27T16:58:34.105Z,1.10
2022-12-27T17:00:39.045Z,1.13
2022-12-27T17:02:44.530Z,0.77
2022-12-27T17:04:53.541Z,1.30
2022-12-27T17:06:57.282Z,1.33
2022-12-27T17:09:31.054Z,1.20
2022-12-27T17:11:37.904Z,1.30
2022-12-27T17:13:48.222Z,1.30
2022-12-27T17:15:54.137Z,0.90
2022-12-27T17:17:58.129Z,1.27
2022-12-27T17:20:03.441Z,1.00
2022-12-27T17:22:07.454Z,1.27
2022-12-27T17:24:11.339Z,1.10
2022-12-27T17:26:22.429Z,1.10
2022-12-27T17:28:27.371Z,1.23
2022-12-27T17:30:35.354Z,1.13
2022-12-27T17:32:46.277Z,0.97
2022-12-27T17:34:51.926Z,1.50
2022-12-27T17:36:56.767Z,0.97
2022-12-27T17:39:06.463Z,1.03
2022-12-27T17:41:15.711Z,0.90
2022-12-27T17:43:37.794Z,1.20
2022-12-27T17:45:42.905Z,1.00
2022-12-27T17:47:53.491Z,0.93
2022-12-27T17:49:59.590Z,0.90
2022-12-27T17:52:13.266Z,1.10
2022-12-27T17:54:34.119Z,1.40
2022-12-27T17:56:57.298Z,1.10
2022-12-27T17:59:07.046Z,1.20
2022-12-27T18:01:09.808Z,1.30
2022-12-27T18:03:13.050Z,1.43
2022-12-27T18:05:15.956Z,1.17
2022-12-27T18:07:23.503Z,1.03
2022-12-27T18:09:39.652Z,1.17
2022-12-27T18:11:42.383Z,1.40
2022-12-27T18:13:48.804Z,1.17
2022-12-27T18:15:52.784Z,1.30
2022-12-27T18:17:56.578Z,1.00
2022-12-27T18:19:59.286Z,1.00
2022-12-27T18:22:03.152Z,1.10
2022-12-27T18:24:06.842Z,1.20
2022-12-27T18:26:13.419Z,1.27
2022-12-27T18:28:17.325Z,1.33
2022-12-27T18:30:19.991Z,1.60
2022-12-27T18:32:24.662Z,1.40
2022-12-27T18:34:28.931Z,1.50
2022-12-27T18:36:32.977Z,1.50
2022-12-27T18:38:36.697Z,1.60
2022-12-27T18:40:39.393Z,1.57
2022-12-27T18:42:49.404Z,1.60
2022-12-27T18:44:53.840Z,1.63
2022-12-27T18:46:59.286Z,1.60
2022-12-27T18:49:04.313Z,1.70
2022-12-27T18:51:07.935Z,1.50
2022-12-27T18:53:24.085Z,1.60
2022-12-27T18:55:28.213Z,2.00
2022-12-27T18:57:35.201Z,2.07
2022-12-27T18:59:42.578Z,2.03
2022-12-27T19:01:46.513Z,1.77
2022-12-27T19:04:04.111Z,1.53
2022-12-27T19:06:08.464Z,1.67
2022-12-27T19:08:13.215Z,1.43
2022-12-27T19:10:17.058Z,1.33
2022-12-27T19:12:22.346Z,1.67
2022-12-27T19:14:25.323Z,1.50
2022-12-27T19:16:29.983Z,1.90
2022-12-27T19:18:36.364Z,1.60
2022-12-27T19:20:40.653Z,2.13
2022-12-27T19:22:44.533Z,1.30
2022-12-27T19:24:48.971Z,1.30
2022-12-27T19:26:52.247Z,2.00
2022-12-27T19:29:01.469Z,1.70
2022-12-27T19:31:10.598Z,1.23
2022-12-27T19:33:15.789Z,1.30
2022-12-27T19:35:19.247Z,1.17
2022-12-27T19:37:26.150Z,1.90
2022-12-27T19:39:32.617Z,1.53
2022-12-27T19:41:41.750Z,1.40
2022-12-27T19:43:45.397Z,1.60
2022-12-27T19:45:48.293Z,1.40
2022-12-27T19:47:52.388Z,1.10
2022-12-27T19:49:55.103Z,1.50
2022-12-27T19:51:57.797Z,1.17
2022-12-27T19:54:02.269Z,1.40
2022-12-27T19:56:05.741Z,1.60
2022-12-27T19:58:11.584Z,2.00
2022-12-27T20:00:15.752Z,1.50
2022-12-27T20:02:20.699Z,1.40
2022-12-27T20:04:24.214Z,1.40
2022-12-27T20:06:28.493Z,1.53
2022-12-27T20:08:33.831Z,1.70
2022-12-27T20:10:37.973Z,1.77
2022-12-27T20:12:41.110Z,1.40
2022-12-27T20:14:44.076Z,1.33
2022-12-27T20:16:47.346Z,1.47
2022-12-27T20:18:50.191Z,1.30
2022-12-27T20:20:53.477Z,1.10
2022-12-27T20:22:56.175Z,1.30
2022-12-27T20:24:58.852Z,1.00
2022-12-27T20:27:02.989Z,1.40
2022-12-27T20:29:06.211Z,1.00
2022-12-27T20:31:09.301Z,1.00
2022-12-27T20:33:12.151Z,1.30
2022-12-27T20:35:14.876Z,1.20
2022-12-27T20:37:24.150Z,1.00
2022-12-27T20:39:27.415Z,1.40
2022-12-27T20:41:30.165Z,1.20
2022-12-27T20:43:34.139Z,0.90
2022-12-27T20:45:37.279Z,1.43
2022-12-27T20:47:40.086Z,1.30
2022-12-27T20:49:43.326Z,1.10
2022-12-27T20:51:46.463Z,1.17
2022-12-27T20:53:55.175Z,1.30
2022-12-27T20:55:59.602Z,1.00
2022-12-27T20:58:02.360Z,1.10
2022-12-27T21:00:08.566Z,1.10
2022-12-27T21:02:11.797Z,1.23
2022-12-27T21:04:14.767Z,1.30
2022-12-27T21:06:19.304Z,1.30
2022-12-27T21:08:22.442Z,1.30
2022-12-27T21:10:25.160Z,1.37
2022-12-27T21:12:27.837Z,0.90
2022-12-27T21:14:30.818Z,1.00
2022-12-27T21:16:35.600Z,1.00
2022-12-27T21:18:38.755Z,1.30
2022-12-27T21:20:41.515Z,1.03
2022-12-27T21:22:44.257Z,1.20
2022-12-27T21:24:47.328Z,1.20
2022-12-27T21:26:56.074Z,1.20
2022-12-27T21:28:59.735Z,1.30
2022-12-27T21:31:02.787Z,1.20
2022-12-27T21:33:07.640Z,1.10
2022-12-27T21:35:10.933Z,1.10
2022-12-27T21:37:13.935Z,1.20
2022-12-27T21:39:17.591Z,1.30
2022-12-27T21:41:23.052Z,1.20
2022-12-27T21:43:28.642Z,1.20
2022-12-27T21:45:33.066Z,1.20
2022-12-27T21:47:36.812Z,1.17
2022-12-27T21:49:42.283Z,1.20
2022-12-27T21:51:45.091Z,1.27
2022-12-27T21:53:48.771Z,1.40
2022-12-27T21:55:58.790Z,1.13
2022-12-27T21:58:02.000Z,1.20
2022-12-27T22:00:08.234Z,0.90
2022-12-27T22:02:12.332Z,1.00
2022-12-27T22:04:15.809Z,1.17
2022-12-27T22:06:20.809Z,1.43
2022-12-27T22:08:24.182Z,1.20
2022-12-27T22:10:26.959Z,1.30
2022-12-27T22:12:30.212Z,1.13
2022-12-27T22:14:36.888Z,1.00
2022-12-27T22:16:40.304Z,1.13
2022-12-27T22:18:45.193Z,1.23
2022-12-27T22:20:48.678Z,1.37
2022-12-27T22:22:52.883Z,1.20
2022-12-27T22:24:56.097Z,1.17
2022-12-27T22:26:59.976Z,1.10
2022-12-27T22:29:04.206Z,1.13
2022-12-27T22:31:07.491Z,1.10
2022-12-27T22:33:10.692Z,1.00
2022-12-27T22:35:13.867Z,1.20
2022-12-27T22:37:24.075Z,1.20
2022-12-27T22:39:29.228Z,1.40
2022-12-27T22:41:32.843Z,1.30
2022-12-27T22:43:36.304Z,1.00
2022-12-27T22:45:41.695Z,1.20
2022-12-27T22:47:44.832Z,0.97
2022-12-27T22:49:47.975Z,1.17
2022-12-27T22:51:53.243Z,1.43
2022-12-27T22:53:56.096Z,1.00
2022-12-27T22:56:00.556Z,1.10
2022-12-27T22:58:03.308Z,1.30
2022-12-27T23:00:09.419Z,1.10
2022-12-27T23:02:12.269Z,1.30
2022-12-27T23:04:16.072Z,1.20
2022-12-27T23:06:19.016Z,1.37
2022-12-27T23:08:22.071Z,1.20
2022-12-27T23:10:24.956Z,1.27
2022-12-27T23:12:28.966Z,1.10
2022-12-27T23:14:32.163Z,1.30
2022-12-27T23:16:36.785Z,0.97
2022-12-27T23:18:40.075Z,1.17
2022-12-27T23:21:21.773Z,1.30
2022-12-27T23:23:06.795Z,1.23
2022-12-27T23:25:28.479Z,1.50
2022-12-27T23:27:32.505Z,1.20
2022-12-27T23:29:35.177Z,1.00
2022-12-27T23:31:54.113Z,1.30
2022-12-27T23:33:58.131Z,1.13
2022-12-27T23:36:00.921Z,0.90
2022-12-27T23:38:03.722Z,0.90
2022-12-27T23:40:08.317Z,1.20
2022-12-27T23:42:11.098Z,1.33
2022-12-27T23:44:16.764Z,1.27
2022-12-27T23:46:24.147Z,1.27
2022-12-27T23:48:27.388Z,1.03
2022-12-27T23:50:30.071Z,1.00
2022-12-27T23:52:32.823Z,0.93
2022-12-27T23:54:35.931Z,1.30
2022-12-27T23:56:39.732Z,0.90
2022-12-27T23:58:42.756Z,1.00
